^^
Datos históricos de la estación: Murcia-Puente Tocinos
Diario Informe para Abril 17, 2018 Unidades:  Ambas    Inglés   Métrico
Diario Semanal Mensual Anual Configurable
  Máximo: Mínimo: Media:
Temperatura: 76.1 °F /  24.5 °C 56.7 °F /  13.7 °C 65.5 °F /  18.6 °C
Punto de rocio: 49.3 °F /  9.6 °C 40.3 °F /  4.6 °C 46.2 °F /  7.9 °C
Humedad: 71% 34% 51%
Velocidad viento: 11.2mph /  18.0km/h - 4.9mph /  7.9km/h
Racha viento: 20.7mph /  33.3km/h - -
Viento- - SSE
Presión: 30.2 in /  1023.2 hPa 30.1 in /  1018.8 hPa -
Precipitación: 0 in /  0.0 mm    
Historical Graphs
 
 
Tabla de datos para Abril 17, 2018
Hora Temperatura Punto de rocio Presión Viento Velocidad viento Racha viento Humedad Intensidad lluvia(por hora) Nubes
00:03 65.8 °F /  18.8 °C 40.8 °F /  4.9 °C 30.1in /  1018.8hPa NE 2.9mph /  4.7km/h 3.6mph /  5.8km/h 40% 0in /  0.0mm RA
00:08 65.7 °F /  18.7 °C 40.6 °F /  4.8 °C 30.1in /  1018.8hPa NE 2.9mph /  4.7km/h 4.6mph /  7.4km/h 40% 0in /  0.0mm RA
00:13 65.7 °F /  18.7 °C 40.6 °F /  4.8 °C 30.1in /  1018.8hPa WNW 2.9mph /  4.7km/h 4mph /  6.4km/h 40% 0in /  0.0mm CLR
00:18 65.5 °F /  18.6 °C 40.5 °F /  4.7 °C 30.1in /  1018.8hPa West 2.4mph /  3.9km/h 6.9mph /  11.1km/h 40% 0in /  0.0mm CLR
00:23 65.3 °F /  18.5 °C 40.3 °F /  4.6 °C 30.1in /  1018.8hPa SW 2.4mph /  3.9km/h 5.4mph /  8.7km/h 40% 0in /  0.0mm CLR
00:28 65.1 °F /  18.4 °C 40.8 °F /  4.9 °C 30.1in /  1018.8hPa SW 4mph /  6.4km/h 6.9mph /  11.1km/h 41% 0in /  0.0mm CLR
00:33 65.1 °F /  18.4 °C 40.8 °F /  4.9 °C 30.1in /  1018.8hPa NW 4mph /  6.4km/h 4mph /  6.4km/h 41% 0in /  0.0mm CLR
00:38 64.9 °F /  18.3 °C 41.4 °F /  5.2 °C 30.1in /  1018.8hPa NW 4mph /  6.4km/h 5.8mph /  9.3km/h 42% 0in /  0.0mm CLR
00:43 64.4 °F /  18.0 °C 42.6 °F /  5.9 °C 30.1in /  1018.8hPa NNE 4mph /  6.4km/h 6.9mph /  11.1km/h 45% 0in /  0.0mm CLR
00:48 63.3 °F /  17.4 °C 44.4 °F /  6.9 °C 30.1in /  1019.2hPa NE 3.6mph /  5.8km/h 5.8mph /  9.3km/h 50% 0in /  0.0mm CLR
00:53 62.4 °F /  16.9 °C 44.6 °F /  7.0 °C 30.1in /  1019.2hPa NE 3.6mph /  5.8km/h 5.4mph /  8.7km/h 52% 0in /  0.0mm CLR
00:58 61.9 °F /  16.6 °C 44.6 °F /  7.0 °C 30.1in /  1019.2hPa NE 4mph /  6.4km/h 4mph /  6.4km/h 53% 0in /  0.0mm CLR
01:03 61.5 °F /  16.4 °C 45.1 °F /  7.3 °C 30.1in /  1019.5hPa North 4mph /  6.4km/h 4mph /  6.4km/h 55% 0in /  0.0mm CLR
01:08 61.3 °F /  16.3 °C 45.5 °F /  7.5 °C 30.1in /  1019.5hPa NNE 1.8mph /  2.9km/h 3.1mph /  5.0km/h 56% 0in /  0.0mm CLR
01:13 61 °F /  16.1 °C 46 °F /  7.8 °C 30.1in /  1019.5hPa NNW 1.8mph /  2.9km/h 3.5mph /  5.6km/h 58% 0in /  0.0mm CLR
01:18 60.6 °F /  15.9 °C 45.9 °F /  7.7 °C 30.1in /  1019.5hPa NNW 1.8mph /  2.9km/h 5.4mph /  8.7km/h 58% 0in /  0.0mm CLR
01:23 60.4 °F /  15.8 °C 45.7 °F /  7.6 °C 30.1in /  1019.5hPa NW 1.8mph /  2.9km/h 4.6mph /  7.4km/h 58% 0in /  0.0mm CLR
01:28 60.1 °F /  15.6 °C 46.6 °F /  8.1 °C 30.1in /  1019.5hPa NNE 2.9mph /  4.7km/h 5.8mph /  9.3km/h 61% 0in /  0.0mm CLR
01:33 59.5 °F /  15.3 °C 46.9 °F /  8.3 °C 30.1in /  1019.5hPa North 2.9mph /  4.7km/h 6.9mph /  11.1km/h 63% 0in /  0.0mm CLR
01:38 59 °F /  15.0 °C 47.1 °F /  8.4 °C 30.1in /  1019.5hPa North 4mph /  6.4km/h 6.9mph /  11.1km/h 65% 0in /  0.0mm CLR
01:43 58.8 °F /  14.9 °C 47.5 °F /  8.6 °C 30.1in /  1019.5hPa East 4mph /  6.4km/h 5.8mph /  9.3km/h 66% 0in /  0.0mm CLR
01:48 58.6 °F /  14.8 °C 47.3 °F /  8.5 °C 30.1in /  1019.9hPa North 4mph /  6.4km/h 4.6mph /  7.4km/h 66% 0in /  0.0mm CLR
01:53 58.5 °F /  14.7 °C 47.1 °F /  8.4 °C 30.1in /  1019.9hPa NE 4mph /  6.4km/h 5.8mph /  9.3km/h 66% 0in /  0.0mm CLR
01:58 58.5 °F /  14.7 °C 47.5 °F /  8.6 °C 30.1in /  1019.9hPa NW 3.1mph /  5.0km/h 5.8mph /  9.3km/h 67% 0in /  0.0mm CLR
02:03 58.5 °F /  14.7 °C 47.5 °F /  8.6 °C 30.1in /  1019.9hPa West 3.1mph /  5.0km/h 3.5mph /  5.6km/h 67% 0in /  0.0mm CLR
02:08 58.5 °F /  14.7 °C 47.5 °F /  8.6 °C 30.1in /  1019.9hPa West 2.9mph /  4.7km/h 3.5mph /  5.6km/h 67% 0in /  0.0mm CLR
02:13 58.5 °F /  14.7 °C 47.5 °F /  8.6 °C 30.1in /  1019.9hPa NW 2.9mph /  4.7km/h 4.6mph /  7.4km/h 67% 0in /  0.0mm CLR
02:18 58.5 °F /  14.7 °C 47.5 °F /  8.6 °C 30.1in /  1019.9hPa ENE 1.8mph /  2.9km/h 3.5mph /  5.6km/h 67% 0in /  0.0mm CLR
02:23 58.5 °F /  14.7 °C 47.8 °F /  8.8 °C 30.1in /  1019.9hPa NNW 1.8mph /  2.9km/h 3.5mph /  5.6km/h 68% 0in /  0.0mm CLR
02:28 58.3 °F /  14.6 °C 47.8 °F /  8.8 °C 30.1in /  1019.9hPa NW 2mph /  3.2km/h 4.6mph /  7.4km/h 68% 0in /  0.0mm CLR
02:33 58.3 °F /  14.6 °C 48.2 °F /  9.0 °C 30.1in /  1019.9hPa NW 2mph /  3.2km/h 3.6mph /  5.8km/h 69% 0in /  0.0mm CLR
02:38 58.3 °F /  14.6 °C 48.2 °F /  9.0 °C 30.1in /  1019.9hPa WNW 2.9mph /  4.7km/h 2.9mph /  4.7km/h 69% 0in /  0.0mm CLR
02:43 58.1 °F /  14.5 °C 48 °F /  8.9 °C 30.1in /  1019.9hPa West 2.9mph /  4.7km/h 3.5mph /  5.6km/h 69% 0in /  0.0mm CLR
02:48 58.1 °F /  14.5 °C 48 °F /  8.9 °C 30.1in /  1019.9hPa West 2mph /  3.2km/h 2.3mph /  3.7km/h 69% 0in /  0.0mm CLR
02:53 58.1 °F /  14.5 °C 48 °F /  8.9 °C 30.1in /  1019.9hPa ENE 2mph /  3.2km/h 3.5mph /  5.6km/h 69% 0in /  0.0mm CLR
02:58 58.1 °F /  14.5 °C 48 °F /  8.9 °C 30.1in /  1019.9hPa South 2mph /  3.2km/h 2.3mph /  3.7km/h 69% 0in /  0.0mm CLR
03:03 58.3 °F /  14.6 °C 48.2 °F /  9.0 °C 30.1in /  1019.9hPa South 2mph /  3.2km/h 2.3mph /  3.7km/h 69% 0in /  0.0mm CLR
03:08 58.3 °F /  14.6 °C 48.2 °F /  9.0 °C 30.1in /  1019.9hPa South 2mph /  3.2km/h 2.9mph /  4.7km/h 69% 0in /  0.0mm CLR
03:13 58.3 °F /  14.6 °C 48.2 °F /  9.0 °C 30.1in /  1019.9hPa South 2mph /  3.2km/h 2.3mph /  3.7km/h 69% 0in /  0.0mm CLR
03:18 58.5 °F /  14.7 °C 48.4 °F /  9.1 °C 30.1in /  1019.9hPa South 1.4mph /  2.3km/h 2.3mph /  3.7km/h 69% 0in /  0.0mm CLR
03:23 58.5 °F /  14.7 °C 47.8 °F /  8.8 °C 30.1in /  1019.9hPa ESE 1.4mph /  2.3km/h 6.9mph /  11.1km/h 68% 0in /  0.0mm CLR
03:28 57.6 °F /  14.2 °C 47.1 °F /  8.4 °C 30.1in /  1019.9hPa ESE 2.4mph /  3.9km/h 4.6mph /  7.4km/h 68% 0in /  0.0mm CLR
03:33 57 °F /  13.9 °C 46.9 °F /  8.3 °C 30.1in /  1019.9hPa ESE 2.4mph /  3.9km/h   69% 0in /  0.0mm CLR
03:38 57 °F /  13.9 °C 47.7 °F /  8.7 °C 30.1in /  1019.9hPa ESE 2mph /  3.2km/h 2.3mph /  3.7km/h 71% 0in /  0.0mm CLR
03:43 57.2 °F /  14.0 °C 47.5 °F /  8.6 °C 30.1in /  1019.9hPa ESE 2mph /  3.2km/h 3.5mph /  5.6km/h 70% 0in /  0.0mm CLR
03:48 57.6 °F /  14.2 °C 47.8 °F /  8.8 °C 30.1in /  1019.9hPa SSW 1.8mph /  2.9km/h 3.5mph /  5.6km/h 70% 0in /  0.0mm CLR
03:53 57.9 °F /  14.4 °C 47.8 °F /  8.8 °C 30.1in /  1019.9hPa SSE 1.8mph /  2.9km/h 6.4mph /  10.3km/h 69% 0in /  0.0mm CLR
03:58 57.6 °F /  14.2 °C 47.5 °F /  8.6 °C 30.1in /  1019.9hPa ESE 3.1mph /  5.0km/h 9.2mph /  14.8km/h 69% 0in /  0.0mm CLR
04:03 57.2 °F /  14.0 °C 47.5 °F /  8.6 °C 30.1in /  1020.2hPa SSE 3.1mph /  5.0km/h 5.9mph /  9.5km/h 70% 0in /  0.0mm CLR
04:08 57.2 °F /  14.0 °C 47.5 °F /  8.6 °C 30.1in /  1020.2hPa South 5.2mph /  8.4km/h 5.2mph /  8.4km/h 70% 0in /  0.0mm CLR
04:13 57.4 °F /  14.1 °C 47.7 °F /  8.7 °C 30.1in /  1020.2hPa South 5.2mph /  8.4km/h 5.8mph /  9.3km/h 70% 0in /  0.0mm CLR
04:18 57.6 °F /  14.2 °C 47.1 °F /  8.4 °C 30.1in /  1020.2hPa SSW 4mph /  6.4km/h 6.9mph /  11.1km/h 68% 0in /  0.0mm CLR
04:23 57.7 °F /  14.3 °C 46.9 °F /  8.3 °C 30.1in /  1020.2hPa SW 4mph /  6.4km/h 4.6mph /  7.4km/h 67% 0in /  0.0mm CLR
04:28 58.1 °F /  14.5 °C 46.8 °F /  8.2 °C 30.1in /  1020.2hPa South 4mph /  6.4km/h 5.8mph /  9.3km/h 66% 0in /  0.0mm CLR
04:33 58.3 °F /  14.6 °C 46.9 °F /  8.3 °C 30.1in /  1020.2hPa East 4mph /  6.4km/h 4.6mph /  7.4km/h 66% 0in /  0.0mm CLR
04:38 57.9 °F /  14.4 °C 46.6 °F /  8.1 °C 30.1in /  1020.2hPa NW 3.1mph /  5.0km/h 3.1mph /  5.0km/h 66% 0in /  0.0mm CLR
04:43 57.7 °F /  14.3 °C 46.6 °F /  8.1 °C 30.1in /  1020.2hPa WSW 3.1mph /  5.0km/h 4.6mph /  7.4km/h 66% 0in /  0.0mm CLR
04:48 57.7 °F /  14.3 °C 46 °F /  7.8 °C 30.1in /  1020.2hPa WSW 2mph /  3.2km/h 4.6mph /  7.4km/h 65% 0in /  0.0mm CLR
04:53 57.9 °F /  14.4 °C 46.2 °F /  7.9 °C 30.1in /  1020.2hPa WSW 2mph /  3.2km/h 2.4mph /  3.9km/h 65% 0in /  0.0mm CLR
04:58 57.9 °F /  14.4 °C 45.9 °F /  7.7 °C 30.1in /  1020.2hPa WSW 2.4mph /  3.9km/h 4.6mph /  7.4km/h 64% 0in /  0.0mm CLR
05:03 57.9 °F /  14.4 °C 45.3 °F /  7.4 °C 30.1in /  1020.2hPa WSW 2.4mph /  3.9km/h 2.4mph /  3.9km/h 63% 0in /  0.0mm CLR
05:05 57.9 °F /  14.4 °C 45.9 °F /  7.7 °C 30.1in /  1020.2hPa WSW 2mph /  3.2km/h   64% 0in /  0.0mm CLR
05:10 57.9 °F /  14.4 °C 45.3 °F /  7.4 °C 30.1in /  1020.2hPa WSW 2mph /  3.2km/h 3.5mph /  5.6km/h 63% 0in /  0.0mm CLR
05:15 57.7 °F /  14.3 °C 44.8 °F /  7.1 °C 30.1in /  1020.2hPa South 2mph /  3.2km/h 4.6mph /  7.4km/h 62% 0in /  0.0mm CLR
05:20 57.7 °F /  14.3 °C 45.1 °F /  7.3 °C 30.1in /  1020.2hPa SSE 2mph /  3.2km/h 3.5mph /  5.6km/h 63% 0in /  0.0mm CLR
05:25 57.6 °F /  14.2 °C 44.6 °F /  7.0 °C 30.1in /  1020.2hPa SW 3.1mph /  5.0km/h 4.6mph /  7.4km/h 62% 0in /  0.0mm CLR
05:30 57.6 °F /  14.2 °C 45.1 °F /  7.3 °C 30.1in /  1020.2hPa SW 3.1mph /  5.0km/h 3.1mph /  5.0km/h 63% 0in /  0.0mm CLR
05:35 57.6 °F /  14.2 °C 45.1 °F /  7.3 °C 30.1in /  1020.2hPa SW 2mph /  3.2km/h 4.6mph /  7.4km/h 63% 0in /  0.0mm CLR
05:40 57.6 °F /  14.2 °C 45.1 °F /  7.3 °C 30.1in /  1020.2hPa WSW 2mph /  3.2km/h 4.6mph /  7.4km/h 63% 0in /  0.0mm CLR
05:45 57.4 °F /  14.1 °C 45 °F /  7.2 °C 30.1in /  1020.2hPa SW 2.9mph /  4.7km/h 4.6mph /  7.4km/h 63% 0in /  0.0mm CLR
05:50 57.6 °F /  14.2 °C 45.1 °F /  7.3 °C 30.1in /  1020.2hPa SW 2.9mph /  4.7km/h 2.9mph /  4.7km/h 63% 0in /  0.0mm CLR
05:55 57.6 °F /  14.2 °C 45.1 °F /  7.3 °C 30.1in /  1020.2hPa SW 1.8mph /  2.9km/h 2.3mph /  3.7km/h 63% 0in /  0.0mm CLR
06:00 57.4 °F /  14.1 °C 44.4 °F /  6.9 °C 30.1in /  1020.2hPa SW 1.8mph /  2.9km/h 2.4mph /  3.9km/h 62% 0in /  0.0mm CLR
06:05 57.2 °F /  14.0 °C 44.2 °F /  6.8 °C 30.1in /  1020.2hPa SW 1.4mph /  2.3km/h 1.4mph /  2.3km/h 62% 0in /  0.0mm CLR
06:10 57 °F /  13.9 °C 45 °F /  7.2 °C 30.1in /  1020.2hPa SW 1.4mph /  2.3km/h 3.1mph /  5.0km/h 64% 0in /  0.0mm CLR
06:15 57 °F /  13.9 °C 45 °F /  7.2 °C 30.1in /  1020.2hPa SW 1.8mph /  2.9km/h 2.4mph /  3.9km/h 64% 0in /  0.0mm CLR
06:20 56.8 °F /  13.8 °C 44.4 °F /  6.9 °C 30.1in /  1020.5hPa WSW 1.8mph /  2.9km/h 4.6mph /  7.4km/h 63% 0in /  0.0mm CLR
06:25 56.8 °F /  13.8 °C 44.1 °F /  6.7 °C 30.1in /  1020.5hPa WSW 2.9mph /  4.7km/h 4.6mph /  7.4km/h 62% 0in /  0.0mm CLR
06:30 56.8 °F /  13.8 °C 44.1 °F /  6.7 °C 30.1in /  1020.5hPa WSW 2.9mph /  4.7km/h 4.6mph /  7.4km/h 62% 0in /  0.0mm CLR
06:35 56.8 °F /  13.8 °C 44.1 °F /  6.7 °C 30.1in /  1020.5hPa West 2.9mph /  4.7km/h 4.7mph /  7.6km/h 62% 0in /  0.0mm CLR
06:40 56.8 °F /  13.8 °C 44.1 °F /  6.7 °C 30.1in /  1020.5hPa West 2.9mph /  4.7km/h 4.7mph /  7.6km/h 62% 0in /  0.0mm CLR
06:45 56.7 °F /  13.7 °C 43.9 °F /  6.6 °C 30.1in /  1020.5hPa WSW 4mph /  6.4km/h 6.9mph /  11.1km/h 62% 0in /  0.0mm CLR
06:50 56.8 °F /  13.8 °C 43.5 °F /  6.4 °C 30.1in /  1020.5hPa SW 4mph /  6.4km/h 8.1mph /  13.0km/h 61% 0in /  0.0mm CLR
06:55 57 °F /  13.9 °C 43.3 °F /  6.3 °C 30.1in /  1020.5hPa SW 4.3mph /  6.9km/h 5.8mph /  9.3km/h 60% 0in /  0.0mm CLR
07:00 56.8 °F /  13.8 °C 43.2 °F /  6.2 °C 30.1in /  1020.5hPa WNW 4.3mph /  6.9km/h 4.3mph /  6.9km/h 60% 0in /  0.0mm CLR
07:05 56.8 °F /  13.8 °C 43.5 °F /  6.4 °C 30.1in /  1020.5hPa West 2.9mph /  4.7km/h 4.6mph /  7.4km/h 61% 0in /  0.0mm CLR
07:10 56.8 °F /  13.8 °C 43.5 °F /  6.4 °C 30.1in /  1020.5hPa West 2.9mph /  4.7km/h 4.6mph /  7.4km/h 61% 0in /  0.0mm CLR
07:15 56.7 °F /  13.7 °C 43.3 °F /  6.3 °C 30.1in /  1020.5hPa WSW 2.9mph /  4.7km/h 4.6mph /  7.4km/h 61% 0in /  0.0mm CLR
07:20 56.7 °F /  13.7 °C 43.3 °F /  6.3 °C 30.1in /  1020.5hPa WSW 2.9mph /  4.7km/h 4.7mph /  7.6km/h 61% 0in /  0.0mm CLR
07:25 56.8 °F /  13.8 °C 43.2 °F /  6.2 °C 30.1in /  1020.5hPa WSW 4mph /  6.4km/h 5.8mph /  9.3km/h 60% 0in /  0.0mm CLR
07:30 57 °F /  13.9 °C 43.3 °F /  6.3 °C 30.1in /  1020.5hPa WSW 4mph /  6.4km/h 8.1mph /  13.0km/h 60% 0in /  0.0mm CLR
07:35 57 °F /  13.9 °C 43.3 °F /  6.3 °C 30.2in /  1020.9hPa West 4.3mph /  6.9km/h 4.6mph /  7.4km/h 60% 0in /  0.0mm CLR
07:40 57 °F /  13.9 °C 43.3 °F /  6.3 °C 30.2in /  1020.9hPa West 4.3mph /  6.9km/h 4.3mph /  6.9km/h 60% 0in /  0.0mm CLR
07:45 57 °F /  13.9 °C 43.3 °F /  6.3 °C 30.2in /  1020.9hPa West 2mph /  3.2km/h 4.6mph /  7.4km/h 60% 0in /  0.0mm CLR
07:50 57 °F /  13.9 °C 43.3 °F /  6.3 °C 30.2in /  1021.2hPa WSW 2mph /  3.2km/h 3.5mph /  5.6km/h 60% 0in /  0.0mm CLR
07:55 57.4 °F /  14.1 °C 43.5 °F /  6.4 °C 30.2in /  1021.2hPa WSW 2mph /  3.2km/h 4.6mph /  7.4km/h 60% 0in /  0.0mm CLR
08:00 57.6 °F /  14.2 °C 43.3 °F /  6.3 °C 30.2in /  1021.2hPa WSW 2mph /  3.2km/h 3.5mph /  5.6km/h 59% 0in /  0.0mm CLR
08:05 57.7 °F /  14.3 °C 43.5 °F /  6.4 °C 30.2in /  1021.2hPa WSW 2.4mph /  3.9km/h 4.6mph /  7.4km/h 59% 0in /  0.0mm CLR
08:10 57.9 °F /  14.4 °C 43.7 °F /  6.5 °C 30.2in /  1021.2hPa WSW 2.4mph /  3.9km/h 4.6mph /  7.4km/h 59% 0in /  0.0mm CLR
08:15 58.3 °F /  14.6 °C 43.5 °F /  6.4 °C 30.2in /  1021.2hPa SW 2.9mph /  4.7km/h 4.6mph /  7.4km/h 58% 0in /  0.0mm CLR
08:20 58.5 °F /  14.7 °C 43.7 °F /  6.5 °C 30.2in /  1021.6hPa SW 2.9mph /  4.7km/h 3.5mph /  5.6km/h 58% 0in /  0.0mm CLR
08:25 58.8 °F /  14.9 °C 44.1 °F /  6.7 °C 30.2in /  1021.6hPa SW 2.4mph /  3.9km/h 4.6mph /  7.4km/h 58% 0in /  0.0mm CLR
08:30 59.2 °F /  15.1 °C 43.9 °F /  6.6 °C 30.2in /  1021.6hPa SW 2.4mph /  3.9km/h 3.5mph /  5.6km/h 57% 0in /  0.0mm CLR
08:35 59.5 °F /  15.3 °C 43.9 °F /  6.6 °C 30.2in /  1021.6hPa WSW 2.9mph /  4.7km/h 5.2mph /  8.4km/h 56% 0in /  0.0mm CLR
08:40 60.1 °F /  15.6 °C 44.2 °F /  6.8 °C 30.2in /  1021.6hPa SSW 2.9mph /  4.7km/h 4.6mph /  7.4km/h 56% 0in /  0.0mm CLR
08:45 60.1 °F /  15.6 °C 44.2 °F /  6.8 °C 30.2in /  1021.6hPa SW 3.1mph /  5.0km/h 3.5mph /  5.6km/h 56% 0in /  0.0mm CLR
08:50 60.3 °F /  15.7 °C 44.1 °F /  6.7 °C 30.2in /  1021.9hPa SW 3.1mph /  5.0km/h 5.8mph /  9.3km/h 55% 0in /  0.0mm CLR
08:55 60.6 °F /  15.9 °C 44.4 °F /  6.9 °C 30.2in /  1021.9hPa SSW 3.6mph /  5.8km/h 4.7mph /  7.6km/h 55% 0in /  0.0mm CLR
09:00 61 °F /  16.1 °C 44.2 °F /  6.8 °C 30.2in /  1021.9hPa South 3.6mph /  5.8km/h 5.8mph /  9.3km/h 54% 0in /  0.0mm CLR
09:05 61.3 °F /  16.3 °C 44.4 °F /  6.9 °C 30.2in /  1021.9hPa WSW 3.6mph /  5.8km/h 9.2mph /  14.8km/h 54% 0in /  0.0mm CLR
09:10 61.5 °F /  16.4 °C 44.2 °F /  6.8 °C 30.2in /  1021.9hPa SW 3.6mph /  5.8km/h 9.2mph /  14.8km/h 53% 0in /  0.0mm CLR
09:15 61.7 °F /  16.5 °C 44.4 °F /  6.9 °C 30.2in /  1021.9hPa SW 4.7mph /  7.6km/h 5.8mph /  9.3km/h 53% 0in /  0.0mm CLR
09:20 61.9 °F /  16.6 °C 44.6 °F /  7.0 °C 30.2in /  1022.2hPa WSW 4.7mph /  7.6km/h 5.8mph /  9.3km/h 53% 0in /  0.0mm CLR
09:25 61.9 °F /  16.6 °C 44.6 °F /  7.0 °C 30.2in /  1022.2hPa SSW 4.7mph /  7.6km/h 9.2mph /  14.8km/h 53% 0in /  0.0mm CLR
09:30 61.9 °F /  16.6 °C 44.6 °F /  7.0 °C 30.2in /  1022.2hPa WSW 4.7mph /  7.6km/h 9.2mph /  14.8km/h 53% 0in /  0.0mm CLR
09:35 62.1 °F /  16.7 °C 44.8 °F /  7.1 °C 30.2in /  1022.2hPa SSW 4.7mph /  7.6km/h 6.9mph /  11.1km/h 53% 0in /  0.0mm CLR
09:40 62.2 °F /  16.8 °C 45 °F /  7.2 °C 30.2in /  1022.2hPa SW 4.7mph /  7.6km/h 6.9mph /  11.1km/h 53% 0in /  0.0mm CLR
09:45 62.6 °F /  17.0 °C 44.8 °F /  7.1 °C 30.2in /  1022.2hPa SW 4.3mph /  6.9km/h 5.9mph /  9.5km/h 52% 0in /  0.0mm CLR
09:50 62.8 °F /  17.1 °C 45 °F /  7.2 °C 30.2in /  1022.2hPa West 4.3mph /  6.9km/h 9.2mph /  14.8km/h 52% 0in /  0.0mm CLR
09:55 63 °F /  17.2 °C 45.1 °F /  7.3 °C 30.2in /  1022.2hPa SW 4.3mph /  6.9km/h 6.9mph /  11.1km/h 52% 0in /  0.0mm CLR
10:00 63.3 °F /  17.4 °C 45 °F /  7.2 °C 30.2in /  1022.2hPa SW 4.3mph /  6.9km/h 6.4mph /  10.3km/h 51% 0in /  0.0mm CLR
10:05 63.5 °F /  17.5 °C 45 °F /  7.2 °C 30.2in /  1022.2hPa WSW 4.7mph /  7.6km/h 7.4mph /  11.9km/h 51% 0in /  0.0mm CLR
10:10 63.9 °F /  17.7 °C 45 °F /  7.2 °C 30.2in /  1022.2hPa WSW 4.7mph /  7.6km/h 8.1mph /  13.0km/h 50% 0in /  0.0mm CLR
10:15 64 °F /  17.8 °C 45 °F /  7.2 °C 30.2in /  1022.2hPa WSW 4.7mph /  7.6km/h 5.8mph /  9.3km/h 50% 0in /  0.0mm CLR
10:20 64.4 °F /  18.0 °C 44.8 °F /  7.1 °C 30.2in /  1022.2hPa WSW 4.7mph /  7.6km/h 8.7mph /  14.0km/h 49% 0in /  0.0mm CLR
10:25 64.6 °F /  18.1 °C 45 °F /  7.2 °C 30.2in /  1022.2hPa WSW 4.7mph /  7.6km/h 6.9mph /  11.1km/h 49% 0in /  0.0mm CLR
10:30 65.1 °F /  18.4 °C 45 °F /  7.2 °C 30.2in /  1022.2hPa WSW 4.7mph /  7.6km/h 9.2mph /  14.8km/h 48% 0in /  0.0mm CLR
10:35 65.5 °F /  18.6 °C 45.3 °F /  7.4 °C 30.2in /  1022.2hPa WSW 5.4mph /  8.7km/h 5.8mph /  9.3km/h 48% 0in /  0.0mm CLR
10:40 65.8 °F /  18.8 °C 45 °F /  7.2 °C 30.2in /  1022.2hPa NW 5.4mph /  8.7km/h 11.5mph /  18.5km/h 47% 0in /  0.0mm CLR
10:45 66.4 °F /  19.1 °C 45 °F /  7.2 °C 30.2in /  1022.2hPa WNW 4.3mph /  6.9km/h 10.4mph /  16.7km/h 46% 0in /  0.0mm CLR
10:50 66.6 °F /  19.2 °C 45.1 °F /  7.3 °C 30.2in /  1022.2hPa West 4.3mph /  6.9km/h 6.9mph /  11.1km/h 46% 0in /  0.0mm CLR
10:55 66.9 °F /  19.4 °C 45 °F /  7.2 °C 30.2in /  1022.2hPa SSW 4mph /  6.4km/h 9.2mph /  14.8km/h 45% 0in /  0.0mm CLR
11:00 66.7 °F /  19.3 °C 44.8 °F /  7.1 °C 30.2in /  1022.2hPa West 4mph /  6.4km/h 10.4mph /  16.7km/h 45% 0in /  0.0mm CLR
11:06 66.9 °F /  19.4 °C 45 °F /  7.2 °C 30.2in /  1022.6hPa WSW 5.2mph /  8.4km/h 6.9mph /  11.1km/h 45% 0in /  0.0mm CLR
11:10 67.3 °F /  19.6 °C 45.1 °F /  7.3 °C 30.2in /  1022.6hPa WSW 5.2mph /  8.4km/h 5.8mph /  9.3km/h 45% 0in /  0.0mm CLR
11:15 67.6 °F /  19.8 °C 45 °F /  7.2 °C 30.2in /  1022.6hPa West 4.3mph /  6.9km/h 6.9mph /  11.1km/h 44% 0in /  0.0mm CLR
11:20 67.8 °F /  19.9 °C 44.4 °F /  6.9 °C 30.2in /  1022.2hPa WNW 4.3mph /  6.9km/h 5.8mph /  9.3km/h 43% 0in /  0.0mm CLR
11:25 67.8 °F /  19.9 °C 43.9 °F /  6.6 °C 30.2in /  1022.2hPa West 4.7mph /  7.6km/h 5.8mph /  9.3km/h 42% 0in /  0.0mm CLR
11:30 68.2 °F /  20.1 °C 44.2 °F /  6.8 °C 30.2in /  1022.2hPa West 4.7mph /  7.6km/h 4.7mph /  7.6km/h 42% 0in /  0.0mm CLR
11:36 69.1 °F /  20.6 °C 45 °F /  7.2 °C 30.2in /  1022.6hPa East 1.8mph /  2.9km/h 3.5mph /  5.6km/h 42% 0in /  0.0mm CLR
11:40 69.6 °F /  20.9 °C 44.2 °F /  6.8 °C 30.2in /  1022.6hPa SE 1.8mph /  2.9km/h 4.6mph /  7.4km/h 40% 0in /  0.0mm CLR
11:46 69.6 °F /  20.9 °C 44.2 °F /  6.8 °C 30.2in /  1022.6hPa East 3.1mph /  5.0km/h 6.2mph /  10.0km/h 40% 0in /  0.0mm CLR
11:51 69.4 °F /  20.8 °C 44.1 °F /  6.7 °C 30.2in /  1022.6hPa NW 3.1mph /  5.0km/h 5.8mph /  9.3km/h 40% 0in /  0.0mm CLR
11:56 69.6 °F /  20.9 °C 44.2 °F /  6.8 °C 30.2in /  1022.6hPa ENE 4mph /  6.4km/h 4.7mph /  7.6km/h 40% 0in /  0.0mm CLR
12:01 70.2 °F /  21.2 °C 44.8 °F /  7.1 °C 30.2in /  1022.6hPa South 4mph /  6.4km/h 4.6mph /  7.4km/h 40% 0in /  0.0mm CLR
12:06 70.9 °F /  21.6 °C 45.3 °F /  7.4 °C 30.2in /  1022.2hPa ENE 2.9mph /  4.7km/h 2.9mph /  4.7km/h 40% 0in /  0.0mm CLR
12:10 71.2 °F /  21.8 °C 44.2 °F /  6.8 °C 30.2in /  1022.2hPa ESE 2.9mph /  4.7km/h 3.6mph /  5.8km/h 38% 0in /  0.0mm CLR
12:16 71.6 °F /  22.0 °C 44.6 °F /  7.0 °C 30.2in /  1022.2hPa WNW 2.4mph /  3.9km/h 5.9mph /  9.5km/h 38% 0in /  0.0mm CLR
12:21 71.6 °F /  22.0 °C 44.6 °F /  7.0 °C 30.2in /  1022.2hPa WNW 2.4mph /  3.9km/h 5.8mph /  9.3km/h 38% 0in /  0.0mm CLR
12:26 72 °F /  22.2 °C 45 °F /  7.2 °C 30.2in /  1022.2hPa NW 2mph /  3.2km/h 5.8mph /  9.3km/h 38% 0in /  0.0mm CLR
12:37 72 °F /  22.2 °C 45 °F /  7.2 °C 30.2in /  1022.2hPa ENE 2.9mph /  4.7km/h 4.6mph /  7.4km/h 38% 0in /  0.0mm CLR
12:42 71.8 °F /  22.1 °C 44.8 °F /  7.1 °C 30.2in /  1022.2hPa ENE 2.9mph /  4.7km/h 8.5mph /  13.7km/h 38% 0in /  0.0mm CLR
12:47 71.4 °F /  21.9 °C 45.1 °F /  7.3 °C 30.2in /  1022.2hPa NE 4.7mph /  7.6km/h 6.9mph /  11.1km/h 39% 0in /  0.0mm CLR
12:52 71.8 °F /  22.1 °C 44.8 °F /  7.1 °C 30.2in /  1022.2hPa SSE 4.7mph /  7.6km/h 4.7mph /  7.6km/h 38% 0in /  0.0mm CLR
12:57 71.8 °F /  22.1 °C 44.8 °F /  7.1 °C 30.2in /  1022.2hPa NNW 4.3mph /  6.9km/h 6.9mph /  11.1km/h 38% 0in /  0.0mm CLR
13:02 71.8 °F /  22.1 °C 44.8 °F /  7.1 °C 30.2in /  1022.2hPa ESE 4.3mph /  6.9km/h 9.2mph /  14.8km/h 38% 0in /  0.0mm CLR
13:12 72 °F /  22.2 °C 44.2 °F /  6.8 °C 30.2in /  1022.2hPa ESE 5.9mph /  9.5km/h 6.9mph /  11.1km/h 37% 0in /  0.0mm CLR
13:17 72 °F /  22.2 °C 45 °F /  7.2 °C 30.2in /  1022.2hPa North 4.3mph /  6.9km/h 4.6mph /  7.4km/h 38% 0in /  0.0mm CLR
13:22 72.5 °F /  22.5 °C 44.8 °F /  7.1 °C 30.2in /  1021.9hPa WSW 4.3mph /  6.9km/h 5.8mph /  9.3km/h 37% 0in /  0.0mm CLR
13:27 72.7 °F /  22.6 °C 45 °F /  7.2 °C 30.2in /  1021.9hPa NNW 4mph /  6.4km/h 5.8mph /  9.3km/h 37% 0in /  0.0mm CLR
13:32 72.7 °F /  22.6 °C 45 °F /  7.2 °C 30.2in /  1021.9hPa North 4mph /  6.4km/h 9.2mph /  14.8km/h 37% 0in /  0.0mm CLR
13:37 73 °F /  22.8 °C 45.1 °F /  7.3 °C 30.2in /  1021.9hPa SE 4.7mph /  7.6km/h 6.9mph /  11.1km/h 37% 0in /  0.0mm CLR
13:42 73 °F /  22.8 °C 45.1 °F /  7.3 °C 30.2in /  1021.9hPa NE 4.7mph /  7.6km/h 9.2mph /  14.8km/h 37% 0in /  0.0mm CLR
13:47 73.2 °F /  22.9 °C 45.3 °F /  7.4 °C 30.2in /  1021.6hPa North 5.2mph /  8.4km/h 5.8mph /  9.3km/h 37% 0in /  0.0mm CLR
13:52 73.4 °F /  23.0 °C 44.8 °F /  7.1 °C 30.2in /  1021.6hPa ENE 5.2mph /  8.4km/h 9.2mph /  14.8km/h 36% 0in /  0.0mm CLR
13:57 73.6 °F /  23.1 °C 45 °F /  7.2 °C 30.2in /  1021.6hPa North 5.2mph /  8.4km/h 8.1mph /  13.0km/h 36% 0in /  0.0mm CLR
14:02 73.2 °F /  22.9 °C 43.9 °F /  6.6 °C 30.2in /  1021.6hPa NE 5.2mph /  8.4km/h 15mph /  24.1km/h 35% 0in /  0.0mm CLR
14:07 73 °F /  22.8 °C 44.4 °F /  6.9 °C 30.2in /  1021.6hPa NNE 7.4mph /  11.9km/h 10.4mph /  16.7km/h 36% 0in /  0.0mm CLR
14:12 73.6 °F /  23.1 °C 44.2 °F /  6.8 °C 30.2in /  1021.6hPa North 7.4mph /  11.9km/h 9.2mph /  14.8km/h 35% 0in /  0.0mm CLR
14:17 73.8 °F /  23.2 °C 45.1 °F /  7.3 °C 30.2in /  1021.6hPa NE 5.9mph /  9.5km/h 6.9mph /  11.1km/h 36% 0in /  0.0mm CLR
14:22 73.9 °F /  23.3 °C 44.4 °F /  6.9 °C 30.2in /  1021.6hPa ESE 5.9mph /  9.5km/h 5.9mph /  9.5km/h 35% 0in /  0.0mm CLR
14:27 74.1 °F /  23.4 °C 44.8 °F /  7.1 °C 30.2in /  1021.6hPa NNE 4.7mph /  7.6km/h 8.1mph /  13.0km/h 35% 0in /  0.0mm CLR
14:32 74.5 °F /  23.6 °C 44.2 °F /  6.8 °C 30.2in /  1021.6hPa WSW 4.7mph /  7.6km/h 4.7mph /  7.6km/h 34% 0in /  0.0mm CLR
14:37 74.5 °F /  23.6 °C 44.2 °F /  6.8 °C 30.2in /  1021.6hPa WNW 4.7mph /  7.6km/h 8.1mph /  13.0km/h 34% 0in /  0.0mm CLR
14:42 74.5 °F /  23.6 °C 44.2 °F /  6.8 °C 30.2in /  1021.6hPa NW 4.7mph /  7.6km/h 9.2mph /  14.8km/h 34% 0in /  0.0mm CLR
14:47 74.5 °F /  23.6 °C 44.2 °F /  6.8 °C 30.2in /  1021.2hPa NW 5.4mph /  8.7km/h 9.2mph /  14.8km/h 34% 0in /  0.0mm CLR
14:52 74.5 °F /  23.6 °C 44.2 °F /  6.8 °C 30.2in /  1021.2hPa NNE 5.4mph /  8.7km/h 12.7mph /  20.4km/h 34% 0in /  0.0mm CLR
14:57 74.5 °F /  23.6 °C 45 °F /  7.2 °C 30.2in /  1021.2hPa WNW 6.2mph /  10.0km/h 9.2mph /  14.8km/h 35% 0in /  0.0mm CLR
15:02 75 °F /  23.9 °C 45.5 °F /  7.5 °C 30.2in /  1021.2hPa ENE 6.2mph /  10.0km/h 8.1mph /  13.0km/h 35% 0in /  0.0mm CLR
15:07 75.6 °F /  24.2 °C 45.1 °F /  7.3 °C 30.2in /  1021.2hPa NNE 3.6mph /  5.8km/h 4.6mph /  7.4km/h 34% 0in /  0.0mm CLR
15:12 75.6 °F /  24.2 °C 46.8 °F /  8.2 °C 30.2in /  1021.2hPa East 3.6mph /  5.8km/h 6.9mph /  11.1km/h 36% 0in /  0.0mm CLR
15:17 75.9 °F /  24.4 °C 47.8 °F /  8.8 °C 30.2in /  1020.9hPa SE 4.7mph /  7.6km/h 9.2mph /  14.8km/h 37% 0in /  0.0mm CLR
15:22 76.1 °F /  24.5 °C 47.8 °F /  8.8 °C 30.2in /  1020.9hPa NE 4.7mph /  7.6km/h 10.4mph /  16.7km/h 37% 0in /  0.0mm CLR
15:27 75.9 °F /  24.4 °C 46.9 °F /  8.3 °C 30.2in /  1020.9hPa SE 5.4mph /  8.7km/h 9.2mph /  14.8km/h 36% 0in /  0.0mm CLR
15:32 75.7 °F /  24.3 °C 47.7 °F /  8.7 °C 30.2in /  1020.9hPa SSE 5.4mph /  8.7km/h 12.7mph /  20.4km/h 37% 0in /  0.0mm CLR
15:37 75 °F /  23.9 °C 47.7 °F /  8.7 °C 30.2in /  1020.9hPa ESE 7.4mph /  11.9km/h 16.1mph /  25.9km/h 38% 0in /  0.0mm CLR
15:42 75.4 °F /  24.1 °C 48 °F /  8.9 °C 30.2in /  1020.9hPa SSE 7.4mph /  11.9km/h 12.3mph /  19.8km/h 38% 0in /  0.0mm CLR
15:47 75.4 °F /  24.1 °C 48 °F /  8.9 °C 30.1in /  1020.5hPa SSE 8.5mph /  13.7km/h 12.7mph /  20.4km/h 38% 0in /  0.0mm CLR
15:52 75 °F /  23.9 °C 47.7 °F /  8.7 °C 30.1in /  1020.5hPa SE 8.5mph /  13.7km/h 13.8mph /  22.2km/h 38% 0in /  0.0mm CLR
15:57 75 °F /  23.9 °C 48.4 °F /  9.1 °C 30.1in /  1020.5hPa ESE 9.2mph /  14.8km/h 15.6mph /  25.1km/h 39% 0in /  0.0mm CLR
16:02 75 °F /  23.9 °C 48.4 °F /  9.1 °C 30.1in /  1020.5hPa ESE 9.2mph /  14.8km/h 13.8mph /  22.2km/h 39% 0in /  0.0mm CLR
16:07 75 °F /  23.9 °C 48.4 °F /  9.1 °C 30.1in /  1020.5hPa SE 8.7mph /  14.0km/h 16.1mph /  25.9km/h 39% 0in /  0.0mm CLR
16:12 74.7 °F /  23.7 °C 48 °F /  8.9 °C 30.1in /  1020.5hPa SE 8.7mph /  14.0km/h 12.5mph /  20.1km/h 39% 0in /  0.0mm CLR
16:17 74.7 °F /  23.7 °C 48.7 °F /  9.3 °C 30.1in /  1020.5hPa SE 10mph /  16.1km/h 11.5mph /  18.5km/h 40% 0in /  0.0mm CLR
16:22 74.5 °F /  23.6 °C 48.6 °F /  9.2 °C 30.1in /  1020.5hPa ESE 10mph /  16.1km/h 15mph /  24.1km/h 40% 0in /  0.0mm CLR
16:27 74.5 °F /  23.6 °C 48.6 °F /  9.2 °C 30.1in /  1020.5hPa SE 9.7mph /  15.6km/h 15mph /  24.1km/h 40% 0in /  0.0mm CLR
16:32 74.5 °F /  23.6 °C 48.6 °F /  9.2 °C 30.1in /  1020.5hPa SSE 9.7mph /  15.6km/h 9.7mph /  15.6km/h 40% 0in /  0.0mm CLR
16:37 74.5 °F /  23.6 °C 48.6 °F /  9.2 °C 30.1in /  1020.5hPa East 9.7mph /  15.6km/h 12.7mph /  20.4km/h 40% 0in /  0.0mm CLR
16:42 74.5 °F /  23.6 °C 48.6 °F /  9.2 °C 30.1in /  1020.5hPa SE 9.7mph /  15.6km/h 17.3mph /  27.8km/h 40% 0in /  0.0mm CLR
16:47 73.9 °F /  23.3 °C 48 °F /  8.9 °C 30.1in /  1020.5hPa ESE 10.2mph /  16.4km/h 16.1mph /  25.9km/h 40% 0in /  0.0mm CLR
16:52 73.8 °F /  23.2 °C 47.8 °F /  8.8 °C 30.1in /  1020.5hPa ESE 10.2mph /  16.4km/h 20.7mph /  33.3km/h 40% 0in /  0.0mm CLR
16:57 73.8 °F /  23.2 °C 48.6 °F /  9.2 °C 30.1in /  1020.5hPa ESE 11.2mph /  18.0km/h 12.7mph /  20.4km/h 41% 0in /  0.0mm CLR
17:02 73.8 °F /  23.2 °C 47.8 °F /  8.8 °C 30.1in /  1020.5hPa ESE 11.2mph /  18.0km/h 13.8mph /  22.2km/h 40% 0in /  0.0mm CLR
17:07 74.1 °F /  23.4 °C 48.2 °F /  9.0 °C 30.1in /  1020.5hPa ESE 9.7mph /  15.6km/h 15mph /  24.1km/h 40% 0in /  0.0mm CLR
17:12 74.1 °F /  23.4 °C 48.2 °F /  9.0 °C 30.1in /  1020.5hPa SSE 9.7mph /  15.6km/h 15mph /  24.1km/h 40% 0in /  0.0mm CLR
17:17 74.5 °F /  23.6 °C 47.8 °F /  8.8 °C 30.1in /  1020.5hPa ESE 9.2mph /  14.8km/h 18.4mph /  29.6km/h 39% 0in /  0.0mm CLR
17:22 74.1 °F /  23.4 °C 48.2 °F /  9.0 °C 30.1in /  1020.5hPa SE 9.2mph /  14.8km/h 11.5mph /  18.5km/h 40% 0in /  0.0mm CLR
17:27 74.5 °F /  23.6 °C 47.8 °F /  8.8 °C 30.1in /  1020.5hPa ESE 9.7mph /  15.6km/h 15mph /  24.1km/h 39% 0in /  0.0mm CLR
17:32 73.9 °F /  23.3 °C 48 °F /  8.9 °C 30.1in /  1020.5hPa SE 9.7mph /  15.6km/h 15mph /  24.1km/h 40% 0in /  0.0mm CLR
17:37 73.8 °F /  23.2 °C 47.8 °F /  8.8 °C 30.1in /  1020.5hPa SE 10.2mph /  16.4km/h 13.8mph /  22.2km/h 40% 0in /  0.0mm CLR
17:42 73.4 °F /  23.0 °C 47.7 °F /  8.7 °C 30.1in /  1020.5hPa SE 10.2mph /  16.4km/h 16.1mph /  25.9km/h 40% 0in /  0.0mm CLR
17:47 73.8 °F /  23.2 °C 47.8 °F /  8.8 °C 30.1in /  1020.5hPa ESE 10mph /  16.1km/h 16.1mph /  25.9km/h 40% 0in /  0.0mm CLR
17:52 73.2 °F /  22.9 °C 47.5 °F /  8.6 °C 30.1in /  1020.5hPa SE 10mph /  16.1km/h 17.3mph /  27.8km/h 40% 0in /  0.0mm CLR
17:57 73 °F /  22.8 °C 47.8 °F /  8.8 °C 30.1in /  1020.5hPa ESE 11.2mph /  18.0km/h 17.3mph /  27.8km/h 41% 0in /  0.0mm CLR
18:02 72.9 °F /  22.7 °C 47.8 °F /  8.8 °C 30.1in /  1020.5hPa SSE 11.2mph /  18.0km/h 17.3mph /  27.8km/h 41% 0in /  0.0mm CLR
18:07 73 °F /  22.8 °C 47.8 °F /  8.8 °C 30.1in /  1020.5hPa SE 11.2mph /  18.0km/h 15mph /  24.1km/h 41% 0in /  0.0mm CLR
18:12 72.9 °F /  22.7 °C 47.8 °F /  8.8 °C 30.1in /  1020.5hPa ESE 11.2mph /  18.0km/h 12.7mph /  20.4km/h 41% 0in /  0.0mm CLR
18:17 72.9 °F /  22.7 °C 47.8 °F /  8.8 °C 30.1in /  1020.5hPa SE 10.2mph /  16.4km/h 18.4mph /  29.6km/h 41% 0in /  0.0mm CLR
18:22 72.7 °F /  22.6 °C 47.7 °F /  8.7 °C 30.1in /  1020.5hPa ESE 10.2mph /  16.4km/h 16.1mph /  25.9km/h 41% 0in /  0.0mm CLR
18:27 72.5 °F /  22.5 °C 48 °F /  8.9 °C 30.1in /  1020.5hPa ESE 10.7mph /  17.2km/h 16.1mph /  25.9km/h 42% 0in /  0.0mm CLR
18:32 72.7 °F /  22.6 °C 48.4 °F /  9.1 °C 30.1in /  1020.5hPa East 10.7mph /  17.2km/h 16.1mph /  25.9km/h 42% 0in /  0.0mm CLR
18:37 72.7 °F /  22.6 °C 48.4 °F /  9.1 °C 30.1in /  1020.5hPa ESE 10.2mph /  16.4km/h 14.5mph /  23.3km/h 42% 0in /  0.0mm CLR
18:42 72.7 °F /  22.6 °C 48.4 °F /  9.1 °C 30.1in /  1020.5hPa ESE 10.2mph /  16.4km/h 13.8mph /  22.2km/h 42% 0in /  0.0mm CLR
18:47 72.3 °F /  22.4 °C 48.6 °F /  9.2 °C 30.2in /  1020.9hPa ESE 9.7mph /  15.6km/h 13.8mph /  22.2km/h 43% 0in /  0.0mm CLR
18:52 72.1 °F /  22.3 °C 48.4 °F /  9.1 °C 30.2in /  1020.9hPa SE 9.7mph /  15.6km/h 15.6mph /  25.1km/h 43% 0in /  0.0mm CLR
18:57 72.1 °F /  22.3 °C 48.4 °F /  9.1 °C 30.2in /  1020.9hPa ESE 10.2mph /  16.4km/h 13mph /  20.9km/h 43% 0in /  0.0mm CLR
19:02 72.1 °F /  22.3 °C 48.4 °F /  9.1 °C 30.2in /  1020.9hPa SE 10.2mph /  16.4km/h 11.5mph /  18.5km/h 43% 0in /  0.0mm CLR
19:07 72.3 °F /  22.4 °C 48.6 °F /  9.2 °C 30.2in /  1020.9hPa SE 8.7mph /  14.0km/h 16.1mph /  25.9km/h 43% 0in /  0.0mm CLR
19:12 72.1 °F /  22.3 °C 48.4 °F /  9.1 °C 30.2in /  1020.9hPa SE 8.7mph /  14.0km/h 12.7mph /  20.4km/h 43% 0in /  0.0mm CLR
19:17 72.1 °F /  22.3 °C 48.4 °F /  9.1 °C 30.2in /  1020.9hPa ESE 8.7mph /  14.0km/h 13.8mph /  22.2km/h 43% 0in /  0.0mm CLR
19:22 71.8 °F /  22.1 °C 48.7 °F /  9.3 °C 30.2in /  1020.9hPa SE 8.7mph /  14.0km/h 11.2mph /  18.0km/h 44% 0in /  0.0mm CLR
19:27 71.8 °F /  22.1 °C 48 °F /  8.9 °C 30.2in /  1020.9hPa ENE 9.2mph /  14.8km/h 12.7mph /  20.4km/h 43% 0in /  0.0mm CLR
19:32 71.6 °F /  22.0 °C 48.6 °F /  9.2 °C 30.2in /  1020.9hPa SE 9.2mph /  14.8km/h 11.5mph /  18.5km/h 44% 0in /  0.0mm CLR
19:37 71.4 °F /  21.9 °C 48.4 °F /  9.1 °C 30.2in /  1020.9hPa SE 8.1mph /  13.0km/h 12.7mph /  20.4km/h 44% 0in /  0.0mm CLR
19:42 71.2 °F /  21.8 °C 48.2 °F /  9.0 °C 30.2in /  1020.9hPa East 8.1mph /  13.0km/h 13.8mph /  22.2km/h 44% 0in /  0.0mm CLR
19:47 71.1 °F /  21.7 °C 48 °F /  8.9 °C 30.2in /  1020.9hPa ESE 8.7mph /  14.0km/h 10.4mph /  16.7km/h 44% 0in /  0.0mm CLR
19:52 70.9 °F /  21.6 °C 48.6 °F /  9.2 °C 30.2in /  1020.9hPa ESE 8.7mph /  14.0km/h 10.7mph /  17.2km/h 45% 0in /  0.0mm CLR
19:57 70.5 °F /  21.4 °C 48 °F /  8.9 °C 30.2in /  1020.9hPa ESE 7.6mph /  12.2km/h 13.8mph /  22.2km/h 45% 0in /  0.0mm CLR
20:02 70.3 °F /  21.3 °C 48 °F /  8.9 °C 30.2in /  1020.9hPa ESE 7.6mph /  12.2km/h 13.8mph /  22.2km/h 45% 0in /  0.0mm CLR
20:07 70 °F /  21.1 °C 48.2 °F /  9.0 °C 30.2in /  1020.9hPa ESE 8.1mph /  13.0km/h 12.7mph /  20.4km/h 46% 0in /  0.0mm CLR
20:12 69.6 °F /  20.9 °C 47.8 °F /  8.8 °C 30.2in /  1020.9hPa ESE 8.1mph /  13.0km/h 13.8mph /  22.2km/h 46% 0in /  0.0mm CLR
20:17 69.4 °F /  20.8 °C 47.8 °F /  8.8 °C 30.2in /  1021.2hPa ESE 9.2mph /  14.8km/h 13.8mph /  22.2km/h 46% 0in /  0.0mm CLR
20:22 69.4 °F /  20.8 °C 48.4 °F /  9.1 °C 30.2in /  1021.2hPa ESE 9.2mph /  14.8km/h 13.8mph /  22.2km/h 47% 0in /  0.0mm CLR
20:27 69.1 °F /  20.6 °C 48 °F /  8.9 °C 30.2in /  1021.2hPa ESE 8.5mph /  13.7km/h 11.5mph /  18.5km/h 47% 0in /  0.0mm CLR
20:32 68.7 °F /  20.4 °C 48.2 °F /  9.0 °C 30.2in /  1021.2hPa ESE 8.5mph /  13.7km/h 10.4mph /  16.7km/h 48% 0in /  0.0mm CLR
20:37 68.5 °F /  20.3 °C 48 °F /  8.9 °C 30.2in /  1021.2hPa ESE 7.4mph /  11.9km/h 8.1mph /  13.0km/h 48% 0in /  0.0mm CLR
20:42 68.4 °F /  20.2 °C 47.8 °F /  8.8 °C 30.2in /  1021.2hPa ESE 7.4mph /  11.9km/h 7.4mph /  11.9km/h 48% 0in /  0.0mm CLR
20:47 68.2 °F /  20.1 °C 48.4 °F /  9.1 °C 30.2in /  1021.2hPa East 5.9mph /  9.5km/h 11.5mph /  18.5km/h 49% 0in /  0.0mm CLR
20:52 68 °F /  20.0 °C 48 °F /  8.9 °C 30.2in /  1021.2hPa NE 5.9mph /  9.5km/h 8.5mph /  13.7km/h 49% 0in /  0.0mm CLR
20:57 67.8 °F /  19.9 °C 48.6 °F /  9.2 °C 30.2in /  1021.2hPa East 5.4mph /  8.7km/h 6.9mph /  11.1km/h 50% 0in /  0.0mm CLR
21:02 67.8 °F /  19.9 °C 48.6 °F /  9.2 °C 30.2in /  1021.6hPa NE 5.4mph /  8.7km/h 5.8mph /  9.3km/h 50% 0in /  0.0mm CLR
21:07 67.5 °F /  19.7 °C 48.2 °F /  9.0 °C 30.2in /  1021.6hPa ESE 4.7mph /  7.6km/h 9.7mph /  15.6km/h 50% 0in /  0.0mm CLR
21:12 67.3 °F /  19.6 °C 48 °F /  8.9 °C 30.2in /  1021.6hPa ENE 4.7mph /  7.6km/h 9.2mph /  14.8km/h 50% 0in /  0.0mm CLR
21:17 66.9 °F /  19.4 °C 47.7 °F /  8.7 °C 30.2in /  1021.6hPa ESE 6.4mph /  10.3km/h 10.4mph /  16.7km/h 50% 0in /  0.0mm CLR
21:22 66.9 °F /  19.4 °C 48.2 °F /  9.0 °C 30.2in /  1021.6hPa NE 6.4mph /  10.3km/h 8.1mph /  13.0km/h 51% 0in /  0.0mm CLR
21:27 66.6 °F /  19.2 °C 47.8 °F /  8.8 °C 30.2in /  1021.6hPa ENE 5.9mph /  9.5km/h 6.9mph /  11.1km/h 51% 0in /  0.0mm CLR
21:32 66.4 °F /  19.1 °C 48.2 °F /  9.0 °C 30.2in /  1021.9hPa NE 5.9mph /  9.5km/h 9.2mph /  14.8km/h 52% 0in /  0.0mm CLR
21:37 66.2 °F /  19.0 °C 48 °F /  8.9 °C 30.2in /  1021.9hPa ESE 4.7mph /  7.6km/h 5.8mph /  9.3km/h 52% 0in /  0.0mm CLR
21:42 66 °F /  18.9 °C 47.8 °F /  8.8 °C 30.2in /  1021.9hPa NE 4.7mph /  7.6km/h 8.1mph /  13.0km/h 52% 0in /  0.0mm CLR
21:47 65.8 °F /  18.8 °C 48.2 °F /  9.0 °C 30.2in /  1022.2hPa ENE 4mph /  6.4km/h 6.9mph /  11.1km/h 53% 0in /  0.0mm CLR
21:52 65.7 °F /  18.7 °C 48.6 °F /  9.2 °C 30.2in /  1022.2hPa NE 4mph /  6.4km/h 8.1mph /  13.0km/h 54% 0in /  0.0mm CLR
21:57 65.5 °F /  18.6 °C 48.4 °F /  9.1 °C 30.2in /  1022.2hPa NE 5.2mph /  8.4km/h 6.9mph /  11.1km/h 54% 0in /  0.0mm CLR
22:02 65.5 °F /  18.6 °C 48.4 °F /  9.1 °C 30.2in /  1022.2hPa ENE 5.2mph /  8.4km/h 5.8mph /  9.3km/h 54% 0in /  0.0mm CLR
22:07 65.1 °F /  18.4 °C 48.6 °F /  9.2 °C 30.2in /  1022.2hPa NNE 4.3mph /  6.9km/h 5.8mph /  9.3km/h 55% 0in /  0.0mm CLR
22:12 64.8 °F /  18.2 °C 49.3 °F /  9.6 °C 30.2in /  1022.2hPa NE 4.3mph /  6.9km/h 6.9mph /  11.1km/h 57% 0in /  0.0mm CLR
22:17 64.2 °F /  17.9 °C 48.7 °F /  9.3 °C 30.2in /  1022.6hPa NNE 4.3mph /  6.9km/h 5.9mph /  9.5km/h 57% 0in /  0.0mm CLR
22:22 63.9 °F /  17.7 °C 48.7 °F /  9.3 °C 30.2in /  1022.6hPa NNE 4.3mph /  6.9km/h 5.8mph /  9.3km/h 58% 0in /  0.0mm CLR
22:27 63.7 °F /  17.6 °C 49.1 °F /  9.5 °C 30.2in /  1022.6hPa NE 4mph /  6.4km/h 4.6mph /  7.4km/h 59% 0in /  0.0mm CLR
22:32 63.5 °F /  17.5 °C 48.9 °F /  9.4 °C 30.2in /  1022.9hPa NNE 4mph /  6.4km/h 8.1mph /  13.0km/h 59% 0in /  0.0mm CLR
22:37 63.1 °F /  17.3 °C 48.9 °F /  9.4 °C 30.2in /  1022.9hPa NNE 4mph /  6.4km/h 8.1mph /  13.0km/h 60% 0in /  0.0mm CLR
22:42 63 °F /  17.2 °C 48.9 °F /  9.4 °C 30.2in /  1022.9hPa NNE 4mph /  6.4km/h 7.4mph /  11.9km/h 60% 0in /  0.0mm CLR
22:47 63 °F /  17.2 °C 48.9 °F /  9.4 °C 30.2in /  1022.9hPa NNE 5.2mph /  8.4km/h 6.9mph /  11.1km/h 60% 0in /  0.0mm CLR
22:52 62.8 °F /  17.1 °C 48.7 °F /  9.3 °C 30.2in /  1022.9hPa NE 5.2mph /  8.4km/h 8.1mph /  13.0km/h 60% 0in /  0.0mm CLR
22:57 62.6 °F /  17.0 °C 48.6 °F /  9.2 °C 30.2in /  1022.9hPa ENE 5.2mph /  8.4km/h 6.9mph /  11.1km/h 60% 0in /  0.0mm CLR
23:02 62.4 °F /  16.9 °C 48.7 °F /  9.3 °C 30.2in /  1022.9hPa NNE 5.2mph /  8.4km/h 6.9mph /  11.1km/h 61% 0in /  0.0mm CLR
23:07 62.4 °F /  16.9 °C 48.7 °F /  9.3 °C 30.2in /  1022.9hPa NNE 5.2mph /  8.4km/h 5.8mph /  9.3km/h 61% 0in /  0.0mm CLR
23:12 62.2 °F /  16.8 °C 48.6 °F /  9.2 °C 30.2in /  1022.9hPa NNE 5.2mph /  8.4km/h 5.8mph /  9.3km/h 61% 0in /  0.0mm CLR
23:17 62.2 °F /  16.8 °C 48.6 °F /  9.2 °C 30.2in /  1022.9hPa NE 4.3mph /  6.9km/h 5.8mph /  9.3km/h 61% 0in /  0.0mm CLR
23:23 62.1 °F /  16.7 °C 48.9 °F /  9.4 °C 30.2in /  1022.9hPa NNE 4.3mph /  6.9km/h 4.6mph /  7.4km/h 62% 0in /  0.0mm CLR
23:28 62.1 °F /  16.7 °C 48.9 °F /  9.4 °C 30.2in /  1022.9hPa NNE 3.1mph /  5.0km/h 4.6mph /  7.4km/h 62% 0in /  0.0mm CLR
23:33 62.1 °F /  16.7 °C 48.9 °F /  9.4 °C 30.2in /  1022.9hPa North 3.1mph /  5.0km/h 4.6mph /  7.4km/h 62% 0in /  0.0mm CLR
23:38 61.9 °F /  16.6 °C 48.7 °F /  9.3 °C 30.2in /  1022.9hPa NNE 2.9mph /  4.7km/h 4.6mph /  7.4km/h 62% 0in /  0.0mm CLR
23:43 61.9 °F /  16.6 °C 49.1 °F /  9.5 °C 30.2in /  1022.9hPa ENE 2.9mph /  4.7km/h 4.6mph /  7.4km/h 63% 0in /  0.0mm CLR
23:48 61.5 °F /  16.4 °C 48.7 °F /  9.3 °C 30.2in /  1023.2hPa NE 3.1mph /  5.0km/h 5.9mph /  9.5km/h 63% 0in /  0.0mm CLR
23:53 61.5 °F /  16.4 °C 48.7 °F /  9.3 °C 30.2in /  1023.2hPa NE 3.1mph /  5.0km/h 5.8mph /  9.3km/h 63% 0in /  0.0mm CLR
23:58 61.5 °F /  16.4 °C 48.7 °F /  9.3 °C 30.2in /  1023.2hPa NE 3.6mph /  5.8km/h 4.6mph /  7.4km/h 63% 0in /  0.0mm CLR
Murcia-Puente Tocinos, España
Compliments of Weather Underground - 2.75 mb

La estación de MeteoMurcia.com, publica sus datos en los siguientes proyectos:

Meteoclimatic www.awekas.at

W3Counter
Web Analytics